Wolston, United Kingdom
Current Conditions -  °F | °C
As of 7:50 PM on Wednesday 26 Nov 2014 (Local Time) from EGBE Reporting Station
Moderate Fog Moderate Fog  
Wind Chill:   Ceiling: Unl
Heat Index:   Visibility: 0.56mi
Dew Point:   Wind: 6mph
Humidity: 100%   Direction: 350°N
Pressure: 29.8"   Gusts: NA
Location:  52.38°N, 1.4°W
Report Text: EGBE 261950Z 35005KT 0900 R23/1200 R05/1400 FG VV/// 08/08 Q1009
Loading
Personal Weather Stations






























Interactive Weather Map New forecast layout! Learn more

10-Day Weather Forecast

Advertisements
Track Severe Weather on mobile